createdAt,value
2022-12-24T00:03:01.489Z,99690.19
2022-12-24T00:06:09.040Z,99698.00
2022-12-24T00:09:11.188Z,99703.84
2022-12-24T00:12:13.657Z,99691.78
2022-12-24T00:15:15.889Z,99683.38
2022-12-24T00:18:18.403Z,99689.91
2022-12-24T00:21:20.575Z,99696.81
2022-12-24T00:24:23.030Z,99695.38
2022-12-24T00:27:25.146Z,99678.78
2022-12-24T00:30:27.650Z,99675.16
2022-12-24T00:33:29.792Z,99676.84
2022-12-24T00:36:32.184Z,99684.69
2022-12-24T00:39:34.396Z,99691.06
2022-12-24T00:42:36.805Z,99694.03
2022-12-24T00:45:38.960Z,99705.19
2022-12-24T00:48:41.373Z,99729.47
2022-12-24T00:51:43.496Z,99756.59
2022-12-24T00:54:45.947Z,99743.59
2022-12-24T00:57:48.129Z,99743.66
2022-12-24T01:00:50.843Z,99738.62
2022-12-24T01:04:13.610Z,99726.09
2022-12-24T01:07:16.078Z,99715.94
2022-12-24T01:10:19.905Z,99714.34
2022-12-24T01:13:22.799Z,99694.88
2022-12-24T01:16:25.096Z,99685.66
2022-12-24T01:19:27.571Z,99675.56
2022-12-24T01:22:29.755Z,99668.59
2022-12-24T01:25:32.247Z,99670.47
2022-12-24T01:28:37.237Z,99669.53
2022-12-24T01:31:39.811Z,99649.81
2022-12-24T01:34:42.281Z,99635.53
2022-12-24T01:37:44.809Z,99652.66
2022-12-24T01:41:05.675Z,99645.34
2022-12-24T01:44:35.709Z,99647.44
2022-12-24T01:47:39.033Z,99629.91
2022-12-24T01:50:42.066Z,99637.16
2022-12-24T01:53:48.629Z,99643.09
2022-12-24T01:57:01.091Z,99658.13
2022-12-24T02:00:08.101Z,99649.87
2022-12-24T02:03:11.065Z,99653.25
2022-12-24T02:06:16.884Z,99646.19
2022-12-24T02:09:20.225Z,99660.06
2022-12-24T02:12:22.637Z,99643.84
2022-12-24T02:15:28.355Z,99646.97
2022-12-24T02:18:38.664Z,99647.28
2022-12-24T02:21:41.060Z,99652.72
2022-12-24T02:25:09.449Z,99654.25
2022-12-24T02:28:30.228Z,99669.84
2022-12-24T02:31:41.618Z,99717.00
2022-12-24T02:34:57.523Z,99681.94
2022-12-24T02:38:08.562Z,99669.44
2022-12-24T02:41:17.571Z,99661.81
2022-12-24T02:44:23.450Z,99667.50
2022-12-24T02:47:28.011Z,99664.75
2022-12-24T02:50:30.303Z,99655.25
2022-12-24T02:53:33.883Z,99641.34
2022-12-24T02:56:58.055Z,99659.72
2022-12-24T03:00:04.624Z,99651.16
2022-12-24T03:03:20.397Z,99652.66
2022-12-24T03:06:38.995Z,99647.81
2022-12-24T03:09:54.674Z,99655.94
2022-12-24T03:13:03.154Z,99675.84
2022-12-24T03:16:12.093Z,99677.59
2022-12-24T03:19:15.557Z,99682.97
2022-12-24T03:22:18.375Z,99692.62
2022-12-24T03:25:24.689Z,99694.06
2022-12-24T03:28:28.762Z,99679.03
2022-12-24T03:31:41.400Z,99661.50
2022-12-24T03:34:43.700Z,99666.88
2022-12-24T03:37:46.211Z,99656.34
2022-12-24T03:40:48.382Z,99645.94
2022-12-24T03:43:50.825Z,99658.91
2022-12-24T03:46:53.029Z,99656.63
2022-12-24T03:49:55.495Z,99666.69
2022-12-24T03:52:57.693Z,99688.94
2022-12-24T03:56:00.147Z,99685.47
2022-12-24T03:59:02.350Z,99691.72
2022-12-24T04:02:04.984Z,99685.47
2022-12-24T04:05:09.124Z,99688.00
2022-12-24T04:08:11.307Z,99680.97
2022-12-24T04:11:16.399Z,99682.81
2022-12-24T04:14:18.585Z,99691.56
2022-12-24T04:17:20.977Z,99683.41
2022-12-24T04:20:23.095Z,99679.69
2022-12-24T04:23:26.320Z,99683.78
2022-12-24T04:26:28.511Z,99696.28
2022-12-24T04:29:30.982Z,99690.13
2022-12-24T04:32:33.146Z,99696.31
2022-12-24T04:35:42.447Z,99696.44
2022-12-24T04:38:45.400Z,99690.69
2022-12-24T04:41:47.923Z,99687.22
2022-12-24T04:44:50.078Z,99682.13
2022-12-24T04:47:52.548Z,99685.75
2022-12-24T04:50:54.652Z,99686.66
2022-12-24T04:53:57.304Z,99694.97
2022-12-24T04:56:59.703Z,99683.41
2022-12-24T05:00:03.378Z,99687.87
2022-12-24T05:03:05.781Z,99687.41
2022-12-24T05:06:12.732Z,99709.66
2022-12-24T05:09:15.043Z,99707.56
2022-12-24T05:12:17.499Z,99706.22
2022-12-24T05:15:19.631Z,99710.44
2022-12-24T05:18:22.855Z,99711.19
2022-12-24T05:21:25.234Z,99716.16
2022-12-24T05:24:46.288Z,99707.56
2022-12-24T05:27:51.322Z,99709.94
2022-12-24T05:30:54.150Z,99714.75
2022-12-24T05:33:56.869Z,99724.09
2022-12-24T05:36:59.317Z,99721.91
2022-12-24T05:40:01.491Z,99727.94
2022-12-24T05:43:03.923Z,99736.06
2022-12-24T05:46:09.905Z,99729.47
2022-12-24T05:49:12.708Z,99725.94
2022-12-24T05:52:14.810Z,99735.84
2022-12-24T05:55:17.259Z,99725.44
2022-12-24T05:58:19.429Z,99730.28
2022-12-24T06:01:22.852Z,99731.81
2022-12-24T06:04:28.952Z,99732.50
2022-12-24T06:07:31.517Z,99732.00
2022-12-24T06:10:34.004Z,99731.16
2022-12-24T06:13:37.402Z,99733.56
2022-12-24T06:16:39.832Z,99733.84
2022-12-24T06:19:42.157Z,99743.31
2022-12-24T06:22:44.548Z,99743.25
2022-12-24T06:25:47.890Z,99747.44
2022-12-24T06:28:51.427Z,99762.66
2022-12-24T06:31:53.725Z,99758.59
2022-12-24T06:34:56.200Z,99765.84
2022-12-24T06:37:58.439Z,99758.94
2022-12-24T06:41:06.262Z,99763.59
2022-12-24T06:44:08.735Z,99763.16
2022-12-24T06:47:11.185Z,99778.09
2022-12-24T06:50:13.609Z,99778.38
2022-12-24T06:53:16.092Z,99788.34
2022-12-24T06:56:19.945Z,99791.88
2022-12-24T06:59:22.400Z,99805.84
2022-12-24T07:02:24.751Z,99803.41
2022-12-24T07:05:27.269Z,99801.72
2022-12-24T07:08:30.051Z,99811.63
2022-12-24T07:11:32.514Z,99809.19
2022-12-24T07:14:34.825Z,99815.75
2022-12-24T07:17:37.473Z,99810.94
2022-12-24T07:20:39.709Z,99802.22
2022-12-24T07:23:42.121Z,99809.69
2022-12-24T07:26:44.401Z,99812.44
2022-12-24T07:29:46.858Z,99806.28
2022-12-24T07:32:48.983Z,99820.84
2022-12-24T07:36:02.056Z,99815.09
2022-12-24T07:39:04.240Z,99820.13
2022-12-24T07:42:07.954Z,99827.78
2022-12-24T07:45:11.322Z,99834.44
2022-12-24T07:48:13.738Z,99831.63
2022-12-24T07:51:15.911Z,99845.91
2022-12-24T07:54:18.398Z,99855.22
2022-12-24T07:57:20.581Z,99849.56
2022-12-24T08:00:23.121Z,99847.44
2022-12-24T08:03:26.244Z,99858.34
2022-12-24T08:06:28.525Z,99861.81
2022-12-24T08:09:32.628Z,99857.88
2022-12-24T08:12:34.828Z,99859.66
2022-12-24T08:15:37.286Z,99875.97
2022-12-24T08:18:39.491Z,99884.56
2022-12-24T08:21:41.947Z,99896.88
2022-12-24T08:24:44.062Z,99904.44
2022-12-24T08:27:47.129Z,99908.47
2022-12-24T08:30:50.499Z,99921.78
2022-12-24T08:33:52.942Z,99932.91
2022-12-24T08:36:55.134Z,99941.78
2022-12-24T08:39:57.573Z,99951.31
2022-12-24T08:43:01.856Z,99953.53
2022-12-24T08:46:05.895Z,99953.63
2022-12-24T08:49:08.123Z,99952.66
2022-12-24T08:52:10.499Z,99963.19
2022-12-24T08:55:12.677Z,99972.13
2022-12-24T08:58:15.063Z,99980.19
2022-12-24T09:01:20.002Z,99976.34
2022-12-24T09:04:22.445Z,99974.38
2022-12-24T09:07:25.213Z,99973.13
2022-12-24T09:10:27.636Z,99981.81
2022-12-24T09:13:29.783Z,99972.63
2022-12-24T09:16:32.199Z,99978.37
2022-12-24T09:19:34.351Z,99987.41
2022-12-24T09:22:38.837Z,99989.75
2022-12-24T09:25:42.429Z,100001.38
2022-12-24T09:28:45.461Z,100007.47
2022-12-24T09:31:47.814Z,100003.16
2022-12-24T09:34:50.300Z,100003.28
2022-12-24T09:38:02.842Z,100010.31
2022-12-24T09:41:27.556Z,100013.56
2022-12-24T09:44:42.536Z,100017.75
2022-12-24T09:47:52.761Z,100014.59
2022-12-24T09:50:56.795Z,100006.59
2022-12-24T09:54:05.945Z,100000.94
2022-12-24T09:57:30.019Z,100000.50
2022-12-24T10:00:36.911Z,99999.34
2022-12-24T10:03:39.613Z,100007.47
2022-12-24T10:07:11.184Z,100013.81
2022-12-24T10:10:30.616Z,100019.81
2022-12-24T10:13:48.532Z,100028.25
2022-12-24T10:17:21.727Z,100017.59
2022-12-24T10:20:42.235Z,100028.94
2022-12-24T10:23:58.223Z,100032.69
2022-12-24T10:27:06.935Z,100026.84
2022-12-24T10:30:27.223Z,100025.78
2022-12-24T10:33:38.306Z,100023.69
2022-12-24T10:36:40.719Z,100028.94
2022-12-24T10:39:43.240Z,100036.63
2022-12-24T10:42:51.120Z,100038.34
2022-12-24T10:45:57.009Z,100044.41
2022-12-24T10:49:03.254Z,100048.59
2022-12-24T10:52:10.815Z,100045.09
2022-12-24T10:55:16.216Z,100041.31
2022-12-24T10:58:19.834Z,100037.84
2022-12-24T11:01:44.587Z,100042.47
2022-12-24T11:04:49.614Z,100046.41
2022-12-24T11:08:03.932Z,100046.94
2022-12-24T11:11:13.250Z,100056.72
2022-12-24T11:14:18.219Z,100060.38
2022-12-24T11:17:22.675Z,100060.97
2022-12-24T11:20:28.341Z,100070.19
2022-12-24T11:23:30.964Z,100072.50
2022-12-24T11:26:33.534Z,100081.00
2022-12-24T11:29:35.699Z,100083.22
2022-12-24T11:32:38.145Z,100086.69
2022-12-24T11:35:46.366Z,100087.09
2022-12-24T11:38:56.931Z,100089.22
2022-12-24T11:41:59.101Z,100093.63
2022-12-24T11:45:05.926Z,100085.63
2022-12-24T11:48:26.521Z,100088.63
2022-12-24T11:51:29.113Z,100079.16
2022-12-24T11:54:37.041Z,100093.28
2022-12-24T11:58:31.674Z,100086.69
2022-12-24T12:01:53.097Z,100097.44
2022-12-24T12:04:59.476Z,100083.22
2022-12-24T12:08:12.784Z,100088.00
2022-12-24T12:11:15.762Z,100088.72
2022-12-24T12:14:26.662Z,100090.25
2022-12-24T12:18:00.521Z,100107.28
2022-12-24T12:21:26.960Z,100099.72
2022-12-24T12:24:39.423Z,100108.19
2022-12-24T12:27:46.755Z,100110.00
2022-12-24T12:31:10.403Z,100102.56
2022-12-24T12:34:25.872Z,100105.06
2022-12-24T12:37:36.779Z,100102.81
2022-12-24T12:40:45.272Z,100095.50
2022-12-24T12:43:50.353Z,100101.06
2022-12-24T12:47:21.068Z,100103.47
2022-12-24T12:50:29.495Z,100101.44
2022-12-24T12:53:44.314Z,100108.34
2022-12-24T12:56:51.388Z,100118.81
2022-12-24T12:59:59.855Z,100117.63
2022-12-24T13:03:05.214Z,100114.22
2022-12-24T13:06:36.504Z,100111.44
2022-12-24T13:09:47.877Z,100114.00
2022-12-24T13:13:20.602Z,100115.88
2022-12-24T13:16:29.221Z,100124.56
2022-12-24T13:19:58.739Z,100128.84
2022-12-24T13:23:11.348Z,100137.81
2022-12-24T13:26:14.842Z,100135.41
2022-12-24T13:29:31.391Z,100139.31
2022-12-24T13:32:54.420Z,100153.78
2022-12-24T13:35:59.985Z,100146.47
2022-12-24T13:39:02.177Z,100154.78
2022-12-24T13:42:04.718Z,100148.66
2022-12-24T13:45:28.863Z,100157.19
2022-12-24T13:48:34.221Z,100160.75
2022-12-24T13:51:36.416Z,100164.97
2022-12-24T13:54:42.587Z,100176.41
2022-12-24T13:57:57.433Z,100174.00
2022-12-24T14:01:33.737Z,100192.06
2022-12-24T14:04:37.724Z,100187.97
2022-12-24T14:07:48.580Z,100183.22
2022-12-24T14:11:04.962Z,100193.44
2022-12-24T14:14:07.065Z,100193.44
2022-12-24T14:17:22.290Z,100201.81
2022-12-24T14:20:24.545Z,100207.69
2022-12-24T14:23:52.868Z,100211.56
2022-12-24T14:26:58.834Z,100208.44
2022-12-24T14:30:18.678Z,100210.19
2022-12-24T14:33:34.235Z,100217.75
2022-12-24T14:36:37.406Z,100227.84
2022-12-24T14:39:44.039Z,100240.41
2022-12-24T14:43:06.010Z,100238.94
2022-12-24T14:46:30.033Z,100246.12
2022-12-24T14:49:57.199Z,100257.94
2022-12-24T14:53:23.129Z,100255.31
2022-12-24T14:56:25.688Z,100259.53
2022-12-24T14:59:28.775Z,100266.94
2022-12-24T15:02:47.435Z,100271.63
2022-12-24T15:05:56.513Z,100268.47
2022-12-24T15:08:59.374Z,100282.41
2022-12-24T15:12:04.436Z,100288.78
2022-12-24T15:15:07.368Z,100287.47
2022-12-24T15:18:17.048Z,100279.44
2022-12-24T15:21:28.879Z,100283.00
2022-12-24T15:24:37.297Z,100298.06
2022-12-24T15:27:39.769Z,100305.81
2022-12-24T15:30:42.021Z,100306.69
2022-12-24T15:33:46.122Z,100308.09
2022-12-24T15:36:48.336Z,100314.28
2022-12-24T15:39:58.938Z,100313.81
2022-12-24T15:43:01.624Z,100315.66
2022-12-24T15:46:04.229Z,100327.91
2022-12-24T15:49:06.807Z,100330.72
2022-12-24T15:52:12.521Z,100329.22
2022-12-24T15:55:29.832Z,100330.91
2022-12-24T15:58:35.414Z,100311.41
2022-12-24T16:01:38.050Z,100329.19
2022-12-24T16:04:40.669Z,100334.03
2022-12-24T16:08:02.829Z,100333.53
2022-12-24T16:11:05.173Z,100338.37
2022-12-24T16:14:14.363Z,100339.75
2022-12-24T16:17:32.847Z,100334.88
2022-12-24T16:20:35.183Z,100336.22
2022-12-24T16:23:51.047Z,100337.41
2022-12-24T16:26:53.513Z,100339.84
2022-12-24T16:29:55.887Z,100337.12
2022-12-24T16:32:58.072Z,100345.44
2022-12-24T16:36:00.508Z,100345.78
2022-12-24T16:39:21.388Z,100334.47
2022-12-24T16:42:42.322Z,100342.41
2022-12-24T16:45:46.494Z,100328.91
2022-12-24T16:48:49.133Z,100335.97
2022-12-24T16:51:51.351Z,100344.59
2022-12-24T16:54:53.736Z,100363.81
2022-12-24T16:57:56.873Z,100366.25
2022-12-24T17:00:59.750Z,100374.38
2022-12-24T17:04:01.925Z,100377.50
2022-12-24T17:07:04.409Z,100382.56
2022-12-24T17:10:10.713Z,100389.03
2022-12-24T17:13:13.176Z,100387.03
2022-12-24T17:16:15.364Z,100391.12
2022-12-24T17:19:17.942Z,100388.59
2022-12-24T17:22:20.100Z,100395.06
2022-12-24T17:25:22.759Z,100393.88
2022-12-24T17:28:25.471Z,100396.66
2022-12-24T17:31:28.043Z,100391.28
2022-12-24T17:34:30.779Z,100400.22
2022-12-24T17:37:33.282Z,100400.53
2022-12-24T17:40:35.383Z,100406.13
2022-12-24T17:43:38.175Z,100412.97
2022-12-24T17:46:40.962Z,100418.66
2022-12-24T17:49:43.405Z,100424.56
2022-12-24T17:52:45.499Z,100426.47
2022-12-24T17:55:47.971Z,100432.59
2022-12-24T17:58:50.158Z,100431.06
2022-12-24T18:01:52.839Z,100433.19
2022-12-24T18:04:55.403Z,100430.34
2022-12-24T18:07:57.529Z,100431.19
2022-12-24T18:10:59.993Z,100436.53
2022-12-24T18:14:04.156Z,100450.66
2022-12-24T18:17:06.640Z,100449.97
2022-12-24T18:20:09.088Z,100456.31
2022-12-24T18:23:11.576Z,100454.84
2022-12-24T18:26:15.433Z,100462.38
2022-12-24T18:29:17.981Z,100454.47
2022-12-24T18:32:20.152Z,100461.94
2022-12-24T18:35:22.652Z,100457.94
2022-12-24T18:38:24.927Z,100462.38
2022-12-24T18:41:29.426Z,100460.13
2022-12-24T18:44:31.583Z,100479.41
2022-12-24T18:47:34.023Z,100489.22
2022-12-24T18:50:37.949Z,100482.66
2022-12-24T18:53:40.427Z,100483.03
2022-12-24T18:56:42.540Z,100490.22
2022-12-24T18:59:44.934Z,100492.13
2022-12-24T19:02:47.241Z,100484.97
2022-12-24T19:05:49.765Z,100480.69
2022-12-24T19:09:01.427Z,100487.19
2022-12-24T19:12:04.805Z,100489.41
2022-12-24T19:15:07.247Z,100492.47
2022-12-24T19:18:09.691Z,100500.59
2022-12-24T19:21:13.371Z,100503.75
2022-12-24T19:24:15.874Z,100509.38
2022-12-24T19:27:18.061Z,100510.00
2022-12-24T19:30:20.560Z,100519.75
2022-12-24T19:33:22.727Z,100512.22
2022-12-24T19:36:28.450Z,100507.03
2022-12-24T19:39:33.295Z,100513.44
2022-12-24T19:42:35.749Z,100525.94
2022-12-24T19:45:38.024Z,100534.31
2022-12-24T19:48:41.479Z,100540.59
2022-12-24T19:51:43.582Z,100529.00
2022-12-24T19:54:46.039Z,100539.66
2022-12-24T19:57:48.148Z,100547.28
2022-12-24T20:00:51.186Z,100548.00
2022-12-24T20:03:54.210Z,100546.94
2022-12-24T20:07:00.589Z,100556.38
2022-12-24T20:10:03.491Z,100553.72
2022-12-24T20:13:06.764Z,100564.12
2022-12-24T20:16:22.851Z,100565.22
2022-12-24T20:19:25.017Z,100561.59
2022-12-24T20:22:27.475Z,100558.56
2022-12-24T20:25:29.796Z,100558.84
2022-12-24T20:28:34.260Z,100564.31
2022-12-24T20:31:37.097Z,100571.09
2022-12-24T20:34:39.607Z,100574.66
2022-12-24T20:37:46.231Z,100564.38
2022-12-24T20:40:48.962Z,100567.75
2022-12-24T20:43:51.455Z,100566.25
2022-12-24T20:46:53.843Z,100578.63
2022-12-24T20:49:56.172Z,100570.19
2022-12-24T20:52:58.907Z,100574.88
2022-12-24T20:56:01.239Z,100590.56
2022-12-24T20:59:03.789Z,100590.31
2022-12-24T21:02:07.261Z,100597.66
2022-12-24T21:05:09.875Z,100590.22
2022-12-24T21:08:13.250Z,100603.75
2022-12-24T21:11:34.198Z,100598.41
2022-12-24T21:14:36.377Z,100607.56
2022-12-24T21:17:38.814Z,100615.78
2022-12-24T21:20:41.927Z,100618.53
2022-12-24T21:23:44.482Z,100616.41
2022-12-24T21:26:46.625Z,100629.41
2022-12-24T21:29:50.241Z,100635.91
2022-12-24T21:32:52.384Z,100624.66
2022-12-24T21:35:59.160Z,100632.81
2022-12-24T21:39:01.267Z,100626.38
2022-12-24T21:42:03.876Z,100634.91
2022-12-24T21:45:06.651Z,100643.47
2022-12-24T21:48:29.059Z,100635.41
2022-12-24T21:51:31.237Z,100634.13
2022-12-24T21:54:33.843Z,100628.91
2022-12-24T21:57:53.952Z,100626.66
2022-12-24T22:00:56.511Z,100631.19
2022-12-24T22:03:58.950Z,100627.75
2022-12-24T22:07:21.745Z,100622.59
2022-12-24T22:10:43.012Z,100637.47
2022-12-24T22:13:45.565Z,100651.88
2022-12-24T22:16:48.062Z,100652.75
2022-12-24T22:19:50.277Z,100647.47
2022-12-24T22:22:52.680Z,100654.31
2022-12-24T22:25:54.889Z,100648.88
2022-12-24T22:28:57.354Z,100648.59
2022-12-24T22:31:59.601Z,100649.75
2022-12-24T22:35:01.999Z,100641.06
2022-12-24T22:38:04.340Z,100649.81
2022-12-24T22:41:08.735Z,100634.78
2022-12-24T22:44:10.883Z,100651.41
2022-12-24T22:47:13.305Z,100636.34
2022-12-24T22:50:15.527Z,100639.25
2022-12-24T22:53:17.921Z,100648.53
2022-12-24T22:56:22.623Z,100650.97
2022-12-24T22:59:25.115Z,100642.38
2022-12-24T23:02:28.629Z,100643.72
2022-12-24T23:05:31.599Z,100642.03
2022-12-24T23:08:35.973Z,100662.31
2022-12-24T23:11:39.737Z,100668.75
2022-12-24T23:14:57.067Z,100668.34
2022-12-24T23:17:59.463Z,100671.47
2022-12-24T23:21:05.953Z,100651.22
2022-12-24T23:24:10.972Z,100640.56
2022-12-24T23:27:13.143Z,100651.28
2022-12-24T23:30:15.616Z,100653.94
2022-12-24T23:33:17.700Z,100659.22
2022-12-24T23:36:21.175Z,100664.00
2022-12-24T23:39:23.418Z,100665.59
2022-12-24T23:42:25.833Z,100663.84
2022-12-24T23:45:27.991Z,100671.19
2022-12-24T23:48:30.462Z,100677.63
2022-12-24T23:51:32.551Z,100680.66
2022-12-24T23:54:35.022Z,100678.72
2022-12-24T23:57:37.196Z,100684.75
